Terminal Aerodrome Forecast
Issued by NWS Medford, OR

Home | Current Version | Previous Version | Text Only | Print | Product List | Glossary On
Versions: 1 2 3 4 5 6 7 8 9 10 11 12 13 14 15 16 17 18 19 20 21 22 23
964
FTUS46 KMFR 230546
TAFMFR
TAF
KMFR 230546Z 2306/2406 07006KT P6SM VCSH FEW012 BKN100
      WS010/15030KT
     FM231200 VRB03KT 5SM BR BKN005 OVC012 WS010/25030KT
     FM231700 VRB03KT P6SM -RA SCT020 OVC030=

USA.gov is the U.S. government's official web portal to all federal, state and local government web resources and services.